Time;durP1;ratioP1;P1;durP2;ratioP2;P2;SDS_P1;SDS_P2;PMS_P1;PMS_P2;Temp;Humidity;BMP_temperature;BMP_pressure;BME280_temperature;BME280_humidity;BME280_pressure;Samples;Min_cycle;Max_cycle;Signal;HPM_P1;HPM_P2
2022/07/20 00:02:21;;;;;;;1.73;1.48;;;;;;;21.35;39.28;99930.34;5011837;28;20033;-90
2022/07/20 00:04:51;;;;;;;2.35;1.30;;;;;;;22.37;39.24;100074.81;5011788;28;20022;-90
2022/07/20 00:07:17;;;;;;;3.50;1.58;;;;;;;22.28;39.39;100081.63;5011895;28;20462;-90
2022/07/20 00:12:27;;;;;;;3.30;1.77;;;;;;;21.65;39.27;100026.91;5012998;28;20097;-90
2022/07/20 00:14:53;;;;;;;1.98;1.50;;;;;;;22.25;39.57;100092.84;5011728;28;20138;-90
2022/07/20 00:17:18;;;;;;;2.90;1.70;;;;;;;22.07;39.46;100061.59;5011837;28;20026;-90
2022/07/20 00:19:44;;;;;;;3.00;1.30;;;;;;;21.65;39.42;100007.25;5012717;28;20037;-91
2022/07/20 00:22:09;;;;;;;3.00;1.45;;;;;;;21.37;39.91;99952.41;5011623;28;20030;-90
2022/07/20 00:24:36;;;;;;;5.10;1.58;;;;;;;22.22;39.49;100082.56;5011500;28;20030;-90
2022/07/20 00:27:01;;;;;;;3.83;1.60;;;;;;;21.95;39.54;100032.03;5011765;28;20022;-90
2022/07/20 00:29:27;;;;;;;4.07;1.40;;;;;;;21.88;39.75;100047.50;5011389;28;20041;-90
2022/07/20 00:31:52;;;;;;;3.55;1.45;;;;;;;21.83;40.22;100034.78;5011510;28;20021;-90
2022/07/20 00:34:18;;;;;;;3.00;1.35;;;;;;;21.54;39.95;100000.84;5011806;28;20029;-90
2022/07/20 00:36:43;;;;;;;3.20;1.67;;;;;;;21.41;40.12;99991.19;5011420;28;20040;-90
2022/07/20 00:39:08;;;;;;;2.10;1.70;;;;;;;21.45;40.23;100005.78;5011631;28;20040;-90
2022/07/20 00:41:34;;;;;;;3.35;1.50;;;;;;;21.58;40.34;100034.28;5011246;28;20029;-89
2022/07/20 00:44:09;;;;;;;2.15;1.50;;;;;;;21.95;40.47;100068.88;5011438;28;20032;-90
2022/07/20 00:46:38;;;;;;;2.15;1.38;;;;;;;21.16;40.41;99980.72;5011329;28;20026;-91
2022/07/20 00:49:05;;;;;;;1.65;1.52;;;;;;;20.96;40.47;99931.13;5011535;28;20112;-91
2022/07/20 00:51:32;;;;;;;3.08;1.50;;;;;;;21.35;40.45;99997.50;5012346;28;20029;-90
2022/07/20 00:53:59;;;;;;;2.35;1.60;;;;;;;21.05;40.47;99941.28;5011507;28;20033;-90
2022/07/20 00:56:24;;;;;;;3.53;1.33;;;;;;;21.00;40.77;99927.75;5017967;28;20046;-90
2022/07/20 00:58:50;;;;;;;4.05;1.67;;;;;;;21.62;40.66;100034.63;5030407;28;20041;-90
2022/07/20 01:01:16;;;;;;;2.45;1.25;;;;;;;21.27;40.66;99981.75;5039141;28;20037;-90
2022/07/20 01:03:43;;;;;;;2.05;1.23;;;;;;;21.79;40.76;100073.13;5019133;28;20474;-90
2022/07/20 01:06:08;;;;;;;4.25;1.48;;;;;;;20.93;40.88;99911.75;5015075;28;20053;-90
2022/07/20 01:08:34;;;;;;;3.25;1.30;;;;;;;21.81;40.69;100053.00;5014527;28;20057;-90
2022/07/20 01:11:01;;;;;;;5.65;1.60;;;;;;;21.78;40.90;100064.25;5014461;28;20033;-90
2022/07/20 01:13:27;;;;;;;2.83;1.60;;;;;;;21.55;40.90;100021.28;5015927;28;20105;-90
2022/07/20 01:15:52;;;;;;;1.90;1.35;;;;;;;21.24;40.89;99987.59;5014823;28;20060;-90
2022/07/20 01:18:18;;;;;;;2.95;1.40;;;;;;;21.27;41.04;99994.38;5014488;28;20034;-90
2022/07/20 01:20:46;;;;;;;4.43;1.67;;;;;;;21.20;41.01;99999.84;5014482;28;20490;-91
2022/07/20 01:23:15;;;;;;;2.30;1.50;;;;;;;21.38;41.10;100020.41;5014313;28;20030;-90
2022/07/20 01:25:41;;;;;;;3.70;1.45;;;;;;;21.49;41.31;100046.41;5014412;28;20030;-90
2022/07/20 01:28:07;;;;;;;2.72;1.40;;;;;;;21.47;41.41;100051.22;5014313;28;20030;-90
2022/07/20 01:30:33;;;;;;;2.00;1.42;;;;;;;20.68;41.52;99950.63;5014174;28;20120;-90
2022/07/20 01:32:58;;;;;;;3.10;1.40;;;;;;;20.35;41.66;99908.25;5014748;28;20064;-90
2022/07/20 01:35:24;;;;;;;2.03;1.42;;;;;;;21.01;41.91;99980.38;5013972;28;20040;-90
2022/07/20 01:37:49;;;;;;;4.22;1.65;;;;;;;20.65;41.76;99965.31;5013951;28;20475;-89
2022/07/20 01:40:15;;;;;;;2.63;1.40;;;;;;;21.34;41.86;100041.53;5015016;28;20029;-90
2022/07/20 01:42:40;;;;;;;3.30;1.38;;;;;;;21.07;41.90;100011.66;5014013;28;20037;-90
2022/07/20 01:45:06;;;;;;;4.10;1.65;;;;;;;21.06;41.89;100019.94;5013866;28;20403;-90
2022/07/20 01:47:32;;;;;;;2.85;1.63;;;;;;;20.82;41.96;99987.75;5013839;28;20486;-90
2022/07/20 01:49:57;;;;;;;3.05;1.73;;;;;;;20.78;42.03;99983.88;5014006;28;20025;-90
2022/07/20 01:52:23;;;;;;;3.28;1.60;;;;;;;21.19;41.91;100047.38;5013884;28;20133;-91
2022/07/20 01:54:48;;;;;;;4.07;1.80;;;;;;;20.52;42.11;99936.88;5013701;28;20057;-90
2022/07/20 01:57:14;;;;;;;5.07;1.80;;;;;;;20.21;42.16;99905.00;5013692;28;20527;-91
2022/07/20 01:59:39;;;;;;;2.65;1.73;;;;;;;20.41;42.01;99952.94;5013780;28;20034;-90
2022/07/20 02:02:04;;;;;;;2.95;1.60;;;;;;;20.85;42.03;99999.88;5014637;28;20108;-90
2022/07/20 02:04:30;;;;;;;2.58;1.42;;;;;;;20.52;42.12;99941.41;5013301;28;20101;-90
2022/07/20 02:06:55;;;;;;;4.97;1.45;;;;;;;20.41;41.92;99934.19;5017146;28;20026;-90
2022/07/20 02:09:21;;;;;;;3.72;1.48;;;;;;;19.68;42.11;99828.91;5017380;28;20026;-90
2022/07/20 02:11:46;;;;;;;2.33;1.50;;;;;;;20.40;42.48;99960.19;5016824;28;20037;-90
2022/07/20 02:14:11;;;;;;;2.90;1.95;;;;;;;20.26;42.52;99938.09;5013758;28;20418;-90
2022/07/20 02:16:37;;;;;;;4.60;1.58;;;;;;;20.13;42.59;99926.78;5013565;28;20119;-90
2022/07/20 02:19:02;;;;;;;3.20;1.55;;;;;;;20.36;42.58;99956.31;5013246;28;20034;-90
2022/07/20 02:21:31;;;;;;;1.85;1.45;;;;;;;20.05;42.59;99924.41;5013222;28;20034;-90
2022/07/20 02:23:56;;;;;;;1.83;1.55;;;;;;;20.41;42.61;100001.22;5014197;28;20068;-91
2022/07/20 02:26:23;;;;;;;3.78;1.60;;;;;;;20.86;42.92;100049.84;5020537;28;20422;-91
2022/07/20 02:28:48;;;;;;;3.28;1.75;;;;;;;20.33;42.67;99961.31;5020572;28;20558;-90
2022/07/20 02:31:14;;;;;;;3.63;1.50;;;;;;;20.03;42.89;99918.44;5019448;28;20053;-91
2022/07/20 02:33:39;;;;;;;3.75;1.77;;;;;;;20.24;42.89;99961.66;5019003;28;20458;-90
2022/07/20 02:36:05;;;;;;;3.00;1.40;;;;;;;20.40;43.05;100013.81;5016625;28;20073;-90
2022/07/20 02:38:31;;;;;;;4.10;1.77;;;;;;;19.62;43.02;99898.66;5014207;28;20030;-90
2022/07/20 02:40:56;;;;;;;4.82;2.00;;;;;;;19.74;43.14;99886.13;5013856;28;20104;-90
2022/07/20 02:43:21;;;;;;;2.78;1.50;;;;;;;20.73;43.15;100058.88;5012610;28;20032;-90
2022/07/20 02:45:47;;;;;;;2.85;1.80;;;;;;;20.70;43.54;100066.59;5012720;28;20030;-90
2022/07/20 02:48:12;;;;;;;3.05;1.50;;;;;;;19.98;43.13;99954.81;5013090;28;20125;-90
2022/07/20 02:50:41;;;;;;;3.33;1.77;;;;;;;20.00;43.31;99938.50;5014124;28;20029;-90
2022/07/20 02:53:08;;;;;;;4.35;1.77;;;;;;;20.46;43.26;100017.44;5013953;28;20026;-90
2022/07/20 02:55:34;;;;;;;3.22;1.85;;;;;;;20.05;43.68;99954.69;5014395;28;20049;-90
2022/07/20 02:57:59;;;;;;;6.38;1.88;;;;;;;20.50;43.57;100037.41;5025536;28;20045;-90
2022/07/20 03:00:25;;;;;;;3.83;1.90;;;;;;;20.37;43.50;100016.94;5037350;28;20022;-90
2022/07/20 03:02:53;;;;;;;4.65;1.73;;;;;;;20.38;43.55;100015.88;5021309;28;20088;-90
2022/07/20 03:05:19;;;;;;;4.18;2.00;;;;;;;20.17;43.62;99985.06;5013423;28;20021;-91
2022/07/20 03:07:45;;;;;;;3.95;2.05;;;;;;;20.07;43.63;99970.59;5012919;28;20022;-90
2022/07/20 03:10:11;;;;;;;3.65;1.92;;;;;;;20.61;43.45;100063.44;5013807;28;20052;-90
2022/07/20 03:12:37;;;;;;;3.72;1.73;;;;;;;20.59;43.67;100060.97;5012909;28;20036;-90
2022/07/20 03:15:04;;;;;;;4.25;1.70;;;;;;;20.33;43.67;100039.09;5013772;28;20030;-90
2022/07/20 03:17:29;;;;;;;3.28;1.92;;;;;;;19.98;43.80;99981.59;5012558;28;20029;-90
2022/07/20 03:19:55;;;;;;;3.05;1.60;;;;;;;20.35;44.02;100085.25;5012555;28;20114;-90
2022/07/20 03:22:20;;;;;;;3.50;1.80;;;;;;;19.75;44.09;99967.31;5012406;28;20026;-90
2022/07/20 03:24:46;;;;;;;4.20;1.80;;;;;;;20.24;43.99;100033.22;5012639;28;20100;-90
2022/07/20 03:27:11;;;;;;;3.53;2.05;;;;;;;20.44;43.67;100074.00;5012443;28;20121;-90
2022/07/20 03:29:37;;;;;;;3.88;2.10;;;;;;;19.63;43.99;99930.59;5012377;28;20036;-90
2022/07/20 03:32:03;;;;;;;5.75;1.77;;;;;;;20.52;43.90;100070.19;5012409;28;20121;-90
2022/07/20 03:34:29;;;;;;;4.15;1.67;;;;;;;19.64;43.86;99945.63;5012986;28;20032;-91
2022/07/20 03:36:54;;;;;;;3.47;1.98;;;;;;;19.92;44.04;99976.34;5011921;28;20112;-90
2022/07/20 03:39:20;;;;;;;4.95;1.90;;;;;;;20.54;43.73;100068.91;5012082;28;20038;-90
2022/07/20 03:41:45;;;;;;;5.25;1.70;;;;;;;19.88;43.91;99986.69;5012073;28;20033;-90
2022/07/20 03:44:11;;;;;;;4.20;2.28;;;;;;;20.39;43.84;100032.78;5011993;28;20061;-90
2022/07/20 03:46:36;;;;;;;5.95;1.75;;;;;;;20.70;43.71;100083.50;5011862;28;20452;-90
2022/07/20 03:49:02;;;;;;;3.78;2.17;;;;;;;20.07;43.87;99978.63;5011863;28;20030;-91
2022/07/20 03:51:28;;;;;;;10.02;3.17;;;;;;;20.04;43.77;99962.97;5012012;28;20037;-90
2022/07/20 03:53:53;;;;;;;7.28;2.10;;;;;;;19.87;43.63;99955.59;5011989;28;20034;-90
2022/07/20 03:56:20;;;;;;;2.65;2.00;;;;;;;20.83;43.57;100077.94;5011485;28;20435;-90
2022/07/20 03:58:46;;;;;;;4.78;2.35;;;;;;;20.84;43.58;100079.59;5011755;28;20025;-89
2022/07/20 04:01:11;;;;;;;3.40;2.10;;;;;;;20.24;43.62;99972.38;5012758;28;20022;-90
2022/07/20 04:03:37;;;;;;;4.53;2.20;;;;;;;20.77;43.70;100051.19;5012233;28;20036;-90
2022/07/20 04:06:03;;;;;;;5.70;2.10;;;;;;;20.52;43.28;100000.44;5011825;28;20026;-90
2022/07/20 04:08:28;;;;;;;3.33;2.15;;;;;;;20.43;43.18;99981.19;5011801;28;20083;-91
2022/07/20 04:10:54;;;;;;;7.38;2.33;;;;;;;19.91;43.22;99879.03;5012881;28;20084;-90
2022/07/20 04:13:20;;;;;;;6.88;2.20;;;;;;;20.85;43.04;100013.31;5012942;28;20030;-90
2022/07/20 04:15:45;;;;;;;6.40;2.28;;;;;;;21.38;42.73;100117.91;5011921;28;20026;-91
2022/07/20 04:18:11;;;;;;;4.97;2.00;;;;;;;21.01;42.76;100035.94;5011772;28;20030;-90
2022/07/20 04:20:36;;;;;;;6.60;2.50;;;;;;;20.68;42.68;99950.63;5011794;28;20038;-90
2022/07/20 04:23:02;;;;;;;4.35;1.90;;;;;;;21.52;42.48;100087.06;5011659;28;20033;-90
2022/07/20 04:25:27;;;;;;;5.47;2.58;;;;;;;21.11;42.48;100010.13;5011402;28;20033;-90
2022/07/20 04:27:52;;;;;;;3.72;2.00;;;;;;;21.03;42.52;99989.00;5011633;28;20061;-90
2022/07/20 04:30:18;;;;;;;4.80;2.30;;;;;;;21.77;42.31;100094.06;5011898;28;20161;-91
2022/07/20 04:32:44;;;;;;;5.13;2.33;;;;;;;21.21;42.34;99990.75;5014473;28;20414;-91
2022/07/20 04:35:11;;;;;;;8.35;2.40;;;;;;;21.69;42.39;100070.22;5016102;28;20022;-91
2022/07/20 04:37:37;;;;;;;7.53;2.53;;;;;;;21.67;42.44;100064.28;5018213;28;20022;-90
2022/07/20 04:40:04;;;;;;;7.95;2.50;;;;;;;21.58;42.57;100047.72;5017133;28;20026;-91
2022/07/20 04:42:29;;;;;;;5.35;2.17;;;;;;;21.57;42.49;100043.38;5016576;28;20119;-91
2022/07/20 04:44:55;;;;;;;7.50;2.10;;;;;;;21.17;42.44;99978.84;5016169;28;20483;-90
2022/07/20 04:47:20;;;;;;;5.25;2.17;;;;;;;21.10;42.31;99938.69;5027556;28;20032;-91
2022/07/20 04:49:46;;;;;;;6.88;2.58;;;;;;;20.81;42.40;99907.47;5033028;28;20057;-91
2022/07/20 04:52:11;;;;;;;6.68;2.97;;;;;;;21.62;42.40;99999.69;5017700;28;20025;-91
2022/07/20 04:54:36;;;;;;;7.38;2.72;;;;;;;22.06;42.09;100065.34;5015957;28;20021;-91
2022/07/20 04:57:02;;;;;;;4.18;2.55;;;;;;;21.47;42.02;99947.25;5015733;28;20072;-90
2022/07/20 04:59:28;;;;;;;6.22;2.67;;;;;;;21.68;42.04;99988.78;5016135;28;20034;-90
2022/07/20 05:01:53;;;;;;;6.60;2.42;;;;;;;22.48;41.81;100130.44;5015519;28;20161;-91
2022/07/20 05:04:19;;;;;;;6.55;2.53;;;;;;;22.02;41.83;100016.56;5015159;28;20029;-90
2022/07/20 05:06:44;;;;;;;7.85;3.15;;;;;;;20.93;42.04;99844.66;5015378;28;20494;-91
2022/07/20 05:09:11;;;;;;;6.35;2.63;;;;;;;22.47;42.04;100099.22;5015109;28;20030;-91
2022/07/20 05:11:37;;;;;;;6.20;2.88;;;;;;;22.55;41.91;100079.16;5014946;28;20030;-91
2022/07/20 05:14:03;;;;;;;4.70;2.67;;;;;;;22.26;41.84;100044.19;5015013;28;20021;-90
2022/07/20 05:16:29;;;;;;;3.85;2.50;;;;;;;21.95;41.55;99994.41;5014674;28;20080;-91
2022/07/20 05:18:54;;;;;;;3.05;2.22;;;;;;;22.65;41.41;100108.94;5015204;28;20057;-91
2022/07/20 05:21:20;;;;;;;7.80;2.92;;;;;;;21.83;41.54;99980.19;5015456;28;20112;-91
2022/07/20 05:23:45;;;;;;;5.88;2.28;;;;;;;22.05;41.56;100004.56;5015048;28;20105;-91
2022/07/20 05:26:11;;;;;;;9.70;2.97;;;;;;;22.76;41.39;100108.03;5015449;28;20157;-90
2022/07/20 05:28:38;;;;;;;6.68;2.33;;;;;;;21.24;41.53;99853.34;5014577;28;20486;-91
2022/07/20 05:31:04;;;;;;;5.05;2.55;;;;;;;22.79;41.37;100100.28;5014751;28;20044;-90
2022/07/20 05:33:29;;;;;;;3.35;2.40;;;;;;;22.61;41.50;100067.41;5014605;28;20101;-90
2022/07/20 05:35:55;;;;;;;6.18;2.55;;;;;;;22.13;41.46;99999.59;5014440;28;20036;-91
2022/07/20 05:38:20;;;;;;;4.93;2.88;;;;;;;22.32;41.12;100002.09;5014916;28;20022;-91
2022/07/20 05:40:46;;;;;;;5.03;2.75;;;;;;;22.94;41.37;100075.53;5014612;28;20021;-91
2022/07/20 05:43:12;;;;;;;4.00;2.80;;;;;;;23.01;41.26;100069.97;5015539;28;20036;-91
2022/07/20 05:45:38;;;;;;;5.35;3.20;;;;;;;23.22;41.36;100117.72;5014253;28;20398;-90
2022/07/20 05:48:05;;;;;;;4.80;2.70;;;;;;;22.99;41.37;100058.63;5014267;28;20029;-91
2022/07/20 05:50:31;;;;;;;6.43;3.10;;;;;;;22.63;41.38;99993.44;5017227;28;20026;-92
2022/07/20 05:52:57;;;;;;;5.65;2.85;;;;;;;23.31;41.07;100094.69;5030464;28;20033;-91
2022/07/20 05:55:22;;;;;;;3.83;2.45;;;;;;;23.28;41.13;100105.13;5030491;28;20055;-91
2022/07/20 05:57:47;;;;;;;4.15;2.42;;;;;;;23.05;40.80;100068.44;5013825;28;20058;-91
2022/07/20 06:00:13;;;;;;;2.88;2.28;;;;;;;22.05;40.90;99930.06;5017768;28;20029;-91
2022/07/20 06:02:39;;;;;;;6.72;2.83;;;;;;;22.40;40.70;99974.78;5033927;28;20104;-91
2022/07/20 06:05:04;;;;;;;6.47;2.85;;;;;;;23.18;40.78;100062.69;5029329;28;20429;-91
2022/07/20 06:07:30;;;;;;;5.40;2.78;;;;;;;22.64;40.66;99964.66;5014040;28;20495;-91
2022/07/20 06:09:55;;;;;;;6.45;3.60;;;;;;;22.95;40.44;100017.91;5019510;28;20034;-91
2022/07/20 06:12:21;;;;;;;4.85;2.88;;;;;;;22.72;40.43;99980.38;5033454;28;20033;-91
2022/07/20 06:14:46;;;;;;;5.80;3.03;;;;;;;22.79;40.39;99995.28;5033330;28;20060;-91
2022/07/20 06:17:12;;;;;;;9.77;4.65;;;;;;;23.30;40.42;100071.50;5021264;28;20109;-91
2022/07/20 06:19:38;;;;;;;7.68;3.45;;;;;;;22.79;40.48;99946.03;5020252;28;20120;-91
2022/07/20 06:22:03;;;;;;;7.15;3.63;;;;;;;23.18;40.24;100003.44;5033403;28;20112;-89
2022/07/20 06:24:29;;;;;;;4.22;2.78;;;;;;;23.74;40.00;100080.44;5024387;28;20038;-91
2022/07/20 06:26:54;;;;;;;4.00;2.78;;;;;;;23.96;40.08;100099.34;5023198;28;20022;-91
2022/07/20 06:29:20;;;;;;;5.72;2.95;;;;;;;24.03;39.99;100094.56;5019975;28;20038;-91
2022/07/20 06:31:46;;;;;;;5.00;3.70;;;;;;;23.88;39.64;100070.13;5022439;28;20034;-91
2022/07/20 06:34:11;;;;;;;8.05;3.88;;;;;;;23.56;40.04;99999.88;5025044;28;20498;-91
2022/07/20 06:36:37;;;;;;;4.80;2.60;;;;;;;23.70;39.68;100021.88;5020505;28;20083;-91
2022/07/20 06:39:02;;;;;;;7.30;4.05;;;;;;;23.58;39.99;99997.75;5023267;28;20052;-90
2022/07/20 06:41:28;;;;;;;7.32;3.15;;;;;;;23.67;39.78;100003.50;5034293;28;20029;-91
2022/07/20 06:43:53;;;;;;;7.25;3.10;;;;;;;23.66;39.48;99983.00;5019341;28;20064;-90
2022/07/20 06:46:19;;;;;;;7.70;2.28;;;;;;;24.35;39.04;100100.06;5028832;28;20023;-90
2022/07/20 06:48:44;;;;;;;6.22;2.75;;;;;;;24.05;39.14;100061.94;5038450;28;20029;-90
2022/07/20 06:51:10;;;;;;;4.93;2.50;;;;;;;23.53;39.30;99951.03;5035729;28;20025;-89
2022/07/20 06:53:35;;;;;;;7.30;4.35;;;;;;;24.54;38.90;100097.03;5044282;28;20490;-91
2022/07/20 06:56:01;;;;;;;5.20;2.72;;;;;;;24.24;39.14;100038.94;5034553;28;20035;-90
2022/07/20 06:58:27;;;;;;;4.05;2.58;;;;;;;24.60;39.32;100091.41;5021047;28;20501;-90
2022/07/20 07:00:52;;;;;;;4.20;2.47;;;;;;;24.29;39.15;100032.78;5028291;28;20026;-90
2022/07/20 07:03:18;;;;;;;3.88;2.10;;;;;;;24.37;38.75;100022.34;5034474;28;20033;-90
2022/07/20 07:05:43;;;;;;;5.82;2.47;;;;;;;24.66;38.77;100079.59;5044644;28;20021;-89
2022/07/20 07:08:08;;;;;;;4.82;2.10;;;;;;;24.34;38.97;100003.97;5025663;28;20049;-90
2022/07/20 07:10:34;;;;;;;4.53;2.22;;;;;;;24.96;38.94;100092.50;5025141;28;20030;-90
2022/07/20 07:12:59;;;;;;;4.72;2.50;;;;;;;24.16;38.60;99980.03;5033301;28;20034;-90
2022/07/20 07:15:25;;;;;;;5.40;2.47;;;;;;;24.09;38.44;99945.19;5019613;28;20021;-89
2022/07/20 07:17:50;;;;;;;5.40;2.20;;;;;;;23.96;38.27;99928.59;5040993;28;20057;-89
2022/07/20 07:20:16;;;;;;;4.72;2.40;;;;;;;24.46;38.01;99984.91;5013912;28;20483;-89
2022/07/20 07:22:41;;;;;;;4.78;1.98;;;;;;;24.65;37.92;99980.75;5019955;28;20028;-90
2022/07/20 07:25:07;;;;;;;2.00;1.77;;;;;;;25.35;37.33;100086.88;5032101;28;20538;-90
2022/07/20 07:27:33;;;;;;;4.00;1.90;;;;;;;25.41;37.52;100106.63;5014674;28;20030;-90
2022/07/20 07:30:01;;;;;;;10.07;2.28;;;;;;;25.49;37.49;100081.81;5012223;28;20021;-89
2022/07/20 07:32:27;;;;;;;5.00;2.13;;;;;;;24.80;36.95;99974.63;5016835;28;20474;-90
2022/07/20 07:34:52;;;;;;;6.18;2.25;;;;;;;25.01;37.04;99989.09;5012669;28;20036;-90
2022/07/20 07:37:17;;;;;;;4.32;2.00;;;;;;;24.09;36.21;99852.63;5013133;28;20471;-90
2022/07/20 07:39:43;;;;;;;3.92;1.75;;;;;;;25.84;35.41;100092.00;5014992;28;20499;-89
2022/07/20 07:42:08;;;;;;;6.85;1.90;;;;;;;25.72;35.44;100067.06;5011946;28;20084;-89
2022/07/20 07:44:34;;;;;;;5.80;1.83;;;;;;;24.44;35.23;99843.16;5012375;28;20442;-90
2022/07/20 07:47:00;;;;;;;4.70;1.95;;;;;;;25.12;35.17;99941.31;5019566;28;20028;-90
2022/07/20 07:49:25;;;;;;;3.22;1.88;;;;;;;24.78;34.82;99857.94;5019892;28;20045;-90
2022/07/20 07:51:50;;;;;;;4.07;1.75;;;;;;;25.32;34.48;99923.31;5023510;28;20403;-90
2022/07/20 07:54:16;;;;;;;5.05;1.40;;;;;;;25.86;34.25;99987.84;5037516;28;20025;-89
2022/07/20 07:56:42;;;;;;;6.20;2.35;;;;;;;26.20;33.98;100038.78;5021988;28;20127;-90
2022/07/20 07:59:07;;;;;;;5.45;2.05;;;;;;;25.98;33.37;99977.56;5028860;28;20064;-90
2022/07/20 08:01:34;;;;;;;7.10;2.20;;;;;;;26.30;33.14;100017.16;5026893;28;20502;-90
2022/07/20 08:04:01;;;;;;;5.68;2.20;;;;;;;26.67;32.67;100059.44;5021954;28;20060;-90
2022/07/20 08:06:27;;;;;;;4.85;1.80;;;;;;;26.23;32.52;99982.22;5015542;28;20120;-91
2022/07/20 08:08:52;;;;;;;2.97;1.77;;;;;;;26.82;32.18;100067.56;5032484;28;20078;-91
2022/07/20 08:11:18;;;;;;;5.82;2.45;;;;;;;26.75;32.46;100058.88;5036433;28;20041;-91
2022/07/20 08:13:43;;;;;;;3.42;1.65;;;;;;;26.39;32.24;99966.81;5041098;28;20034;-91
2022/07/20 08:16:09;;;;;;;3.58;1.45;;;;;;;26.80;32.12;100042.66;5035314;28;20510;-91
2022/07/20 08:18:34;;;;;;;8.15;2.40;;;;;;;26.75;32.09;99996.56;5044973;28;20028;-91
2022/07/20 08:21:00;;;;;;;2.72;1.90;;;;;;;26.76;31.93;99987.38;5053194;28;20108;-91
2022/07/20 08:23:25;;;;;;;4.43;2.28;;;;;;;26.83;31.94;99979.78;5040317;28;20490;-90
2022/07/20 08:25:51;;;;;;;6.18;2.20;;;;;;;27.47;31.83;100057.69;5044084;28;20093;-91
2022/07/20 08:28:19;;;;;;;5.65;2.17;;;;;;;26.67;31.21;99910.44;5052403;28;20109;-92
2022/07/20 08:30:48;;;;;;;4.53;1.40;;;;;;;27.09;30.51;99984.06;5027770;28;20033;-91
2022/07/20 08:33:13;;;;;;;3.58;1.60;;;;;;;27.68;30.60;100048.44;5035080;28;20036;-91
2022/07/20 08:35:40;;;;;;;4.60;1.80;;;;;;;26.81;30.53;99895.25;5039757;28;20037;-91
2022/07/20 08:38:06;;;;;;;3.45;1.60;;;;;;;27.67;30.66;100014.25;5022886;28;20060;-89
2022/07/20 08:40:32;;;;;;;3.70;1.70;;;;;;;27.85;30.42;100020.94;5020606;28;20029;-91
2022/07/20 08:42:57;;;;;;;3.30;2.08;;;;;;;27.64;29.88;99952.41;5016960;28;20026;-91
2022/07/20 08:45:24;;;;;;;5.13;1.70;;;;;;;27.63;29.25;99945.38;5022239;28;20061;-91
2022/07/20 08:47:50;;;;;;;4.72;2.65;;;;;;;28.37;29.61;100017.66;5026179;28;20049;-90
2022/07/20 08:50:24;;;;;;;8.02;1.80;;;;;;;28.52;29.42;100037.63;5035449;28;20037;-90
2022/07/20 08:52:50;;;;;;;2.95;2.05;;;;;;;27.82;29.43;99916.47;5028459;28;20108;-91
2022/07/20 08:55:16;;;;;;;4.68;1.92;;;;;;;28.46;28.83;99994.22;5013528;28;20034;-91
2022/07/20 08:57:42;;;;;;;3.08;1.92;;;;;;;27.26;29.00;99774.97;4996849;28;20082;-91
2022/07/20 09:00:11;;;;;;;4.00;1.70;;;;;;;28.94;28.52;100024.22;5004486;28;20030;-90
2022/07/20 09:02:52;;;;;;;6.13;1.67;;;;;;;29.08;28.27;100021.66;5015179;28;20058;-91
2022/07/20 09:05:18;;;;;;;3.88;1.65;;;;;;;28.59;28.93;99938.41;4997504;28;20061;-91
2022/07/20 09:07:45;;;;;;;5.63;4.78;;;;;;;29.24;28.44;100003.25;5009654;28;20038;-90
2022/07/20 09:10:34;;;;;;;4.65;1.95;;;;;;;29.49;28.13;100019.28;5011014;28;20114;-90
2022/07/20 09:13:05;;;;;;;2.83;2.00;;;;;;;29.63;28.33;100011.22;5016869;28;20522;-91
2022/07/20 09:15:35;;;;;;;3.92;1.60;;;;;;;29.25;27.49;99913.22;5019110;28;20034;-91
2022/07/20 09:18:07;;;;;;;7.20;1.85;;;;;;;29.48;27.78;99929.81;4999245;28;20030;-91
2022/07/20 09:20:34;;;;;;;3.17;1.35;;;;;;;29.92;27.46;99984.69;4998633;28;20058;-90
2022/07/20 09:23:09;;;;;;;2.33;1.60;;;;;;;29.77;27.50;99926.97;4996904;28;20379;-90
2022/07/20 09:25:34;;;;;;;3.97;2.20;;;;;;;30.03;27.43;99939.91;5004778;28;20025;-89
2022/07/20 09:28:01;;;;;;;6.00;2.45;;;;;;;30.40;26.67;99981.78;5028725;28;20495;-89
2022/07/20 09:30:27;;;;;;;2.90;1.60;;;;;;;30.04;26.72;99875.34;5018619;28;20411;-90
2022/07/20 09:32:54;;;;;;;2.65;1.83;;;;;;;30.69;26.67;99957.06;5019814;28;20034;-90
2022/07/20 09:35:21;;;;;;;3.35;1.60;;;;;;;30.32;25.91;99870.78;5016644;28;20030;-89
2022/07/20 09:37:47;;;;;;;2.40;1.55;;;;;;;30.24;25.39;99828.69;5023860;28;20033;-90
2022/07/20 09:40:13;;;;;;;4.07;1.90;;;;;;;30.30;25.22;99797.50;4999355;28;20546;-91
2022/07/20 09:42:40;;;;;;;4.95;1.70;;;;;;;31.42;25.02;99925.34;5014847;28;20089;-91
2022/07/20 09:45:25;;;;;;;5.43;2.85;;;;;;;31.63;24.16;99928.44;5013849;28;20022;-90
2022/07/20 09:48:05;;;;;;;8.90;2.85;;;;;;;31.06;23.68;99816.16;4994738;28;20030;-90
2022/07/20 09:50:33;;;;;;;5.30;2.42;;;;;;;31.91;23.49;99940.91;4994505;28;20125;-90
2022/07/20 09:52:59;;;;;;;5.93;2.25;;;;;;;31.31;23.38;99825.75;5012924;28;20069;-91
2022/07/20 09:55:25;;;;;;;4.40;2.20;;;;;;;32.21;23.22;99948.38;5010096;28;20038;-91
2022/07/20 09:57:51;;;;;;;6.88;1.63;;;;;;;31.65;22.71;99855.22;5009638;28;20120;-90
2022/07/20 10:00:18;;;;;;;6.97;2.20;;;;;;;32.72;22.86;99979.91;5017358;28;20031;-91
2022/07/20 10:02:48;;;;;;;4.15;1.25;;;;;;;32.89;22.57;99967.44;4997964;28;20028;-90
2022/07/20 10:05:18;;;;;;;3.78;2.58;;;;;;;32.92;23.09;99958.63;5028443;28;20037;-90
2022/07/20 10:07:44;;;;;;;3.75;1.90;;;;;;;32.89;22.68;99913.56;4996552;28;20034;-86
2022/07/20 10:10:10;;;;;;;2.90;1.77;;;;;;;33.16;21.95;99950.78;5015296;28;20030;-89
2022/07/20 10:12:36;;;;;;;4.90;2.15;;;;;;;32.32;22.38;99803.31;5027244;28;20056;-89
2022/07/20 10:15:07;;;;;;;8.15;2.05;;;;;;;32.52;21.64;99833.59;5017196;28;20492;-90
2022/07/20 10:17:33;;;;;;;5.15;1.67;;;;;;;33.34;21.70;99941.53;5012174;28;20030;-90
2022/07/20 10:19:59;;;;;;;5.50;2.08;;;;;;;33.50;21.87;99966.53;5020927;28;20030;-90
2022/07/20 10:22:25;;;;;;;4.78;2.08;;;;;;;32.32;21.86;99740.44;5011101;28;20482;-90
2022/07/20 10:25:14;;;;;;;3.97;2.28;;;;;;;33.80;21.74;99927.25;5014389;28;20113;-89
2022/07/20 10:27:39;;;;;;;5.28;2.00;;;;;;;33.64;21.46;99884.22;5011907;28;20073;-89
2022/07/20 10:30:16;;;;;;;4.57;2.00;;;;;;;34.16;21.82;99937.06;4993536;28;20057;-89
2022/07/20 10:32:58;;;;;;;5.40;1.80;;;;;;;33.95;20.99;99904.03;5010984;28;20076;-90
2022/07/20 10:35:27;;;;;;;3.13;1.60;;;;;;;34.20;21.42;99927.06;5009029;28;20092;-90
2022/07/20 10:37:52;;;;;;;4.88;2.50;;;;;;;34.36;20.95;99939.16;5011870;28;20025;-88
2022/07/20 10:40:19;;;;;;;5.40;2.60;;;;;;;33.73;20.97;99808.34;5008033;28;20030;-89
2022/07/20 10:42:46;;;;;;;5.28;2.78;;;;;;;34.81;20.79;99913.97;5009170;28;20058;-89
2022/07/20 10:45:15;;;;;;;7.82;5.07;;;;;;;34.87;20.91;99907.19;5013373;28;20030;-90
2022/07/20 10:47:42;;;;;;;4.95;3.17;;;;;;;35.11;20.84;99906.59;5003409;28;20026;-89
2022/07/20 10:50:09;;;;;;;6.10;2.70;;;;;;;35.26;20.13;99897.78;5017035;28;20060;-90
2022/07/20 10:52:35;;;;;;;4.05;2.20;;;;;;;34.76;19.91;99800.88;4993699;28;20073;-89
2022/07/20 10:55:02;;;;;;;5.53;3.17;;;;;;;35.34;19.36;99894.19;4993513;28;20054;-90
2022/07/20 10:57:28;;;;;;;3.10;1.85;;;;;;;35.55;19.37;99896.94;4995261;28;20053;-89
2022/07/20 11:00:06;;;;;;;5.25;2.08;;;;;;;35.15;19.22;99827.13;4993692;28;20030;-89
2022/07/20 11:02:33;;;;;;;7.07;3.47;;;;;;;35.57;19.30;99891.09;5002062;28;20026;-88
2022/07/20 11:04:59;;;;;;;4.70;3.35;;;;;;;35.15;19.38;99830.69;5011468;28;20391;-89
2022/07/20 11:07:32;;;;;;;5.93;2.90;;;;;;;35.07;18.95;99809.59;4998710;28;20030;-88
2022/07/20 11:09:58;;;;;;;4.90;3.60;;;;;;;34.93;19.15;99737.69;5003686;28;20073;-88
2022/07/20 11:12:28;;;;;;;4.10;2.40;;;;;;;35.81;19.33;99882.22;5012367;28;20030;-85
2022/07/20 11:14:56;;;;;;;5.55;2.00;;;;;;;35.79;18.82;99870.72;5015606;28;20029;-87
2022/07/20 11:17:21;;;;;;;3.90;2.28;;;;;;;35.38;18.85;99811.16;5012259;28;20430;-89
2022/07/20 11:19:47;;;;;;;4.72;3.47;;;;;;;36.09;18.90;99888.72;5000081;28;20030;-89
2022/07/20 11:22:13;;;;;;;5.18;2.55;;;;;;;36.29;18.29;99885.09;5001965;28;20030;-89
2022/07/20 11:24:38;;;;;;;3.05;1.83;;;;;;;36.27;18.31;99842.56;4993736;28;20030;-89
2022/07/20 11:27:15;;;;;;;3.50;2.17;;;;;;;36.25;18.24;99844.84;4996214;28;20073;-89
2022/07/20 11:29:48;;;;;;;7.82;2.90;;;;;;;36.01;18.94;99858.56;5009570;28;20040;-89